Time;durP1;ratioP1;P1;durP2;ratioP2;P2;SDS_P1;SDS_P2;PMS_P1;PMS_P2;Temp;Humidity;BMP_temperature;BMP_pressure;BME280_temperature;BME280_humidity;BME280_pressure;Samples;Min_cycle;Max_cycle;Signal;HPM_P1;HPM_P2
2022/11/15 00:00:07;;;;;;;18.25;8.45;;;;;;;0.24;100.00;95455.69;4990640;28;20042;-71
2022/11/15 00:02:53;;;;;;;20.75;8.00;;;;;;;0.24;100.00;95450.50;4991883;28;20054;-71
2022/11/15 00:05:19;;;;;;;16.10;8.00;;;;;;;0.24;100.00;95451.28;4990077;28;20112;-71
2022/11/15 00:07:44;;;;;;;16.67;7.57;;;;;;;0.31;100.00;95446.09;4982286;28;20050;-71
2022/11/15 00:10:10;;;;;;;23.17;8.32;;;;;;;0.16;100.00;95448.94;4973427;28;20045;-71
2022/11/15 00:12:35;;;;;;;17.10;7.78;;;;;;;0.12;100.00;95442.59;4984177;28;20042;-71
2022/11/15 00:15:01;;;;;;;17.05;7.45;;;;;;;0.05;100.00;95436.66;4981097;28;20481;-70
2022/11/15 00:17:26;;;;;;;16.83;7.53;;;;;;;0.08;100.00;95442.19;4986825;28;20042;-71
2022/11/15 00:19:52;;;;;;;16.30;7.90;;;;;;;0.00;100.00;95434.69;4990696;28;20673;-71
2022/11/15 00:22:18;;;;;;;18.42;7.82;;;;;;;0.02;100.00;95445.59;4983031;28;20038;-71
2022/11/15 00:24:43;;;;;;;15.38;7.65;;;;;;;0.04;100.00;95435.84;4989381;28;20504;-71
2022/11/15 00:27:09;;;;;;;20.77;7.95;;;;;;;-0.01;100.00;95431.28;4993209;28;20487;-71
2022/11/15 00:29:34;;;;;;;16.52;7.65;;;;;;;0.01;100.00;95436.25;5000846;28;20041;-71
2022/11/15 00:32:00;;;;;;;18.90;7.97;;;;;;;-0.07;100.00;95436.47;4998987;28;20035;-71
2022/11/15 00:34:25;;;;;;;17.67;8.25;;;;;;;-0.03;100.00;95427.31;4998110;28;20042;-71
2022/11/15 00:36:51;;;;;;;15.50;7.55;;;;;;;-0.06;100.00;95430.31;4998229;28;20042;-71
2022/11/15 00:39:16;;;;;;;15.90;7.03;;;;;;;-0.10;100.00;95434.28;4981514;28;20050;-71
2022/11/15 00:41:42;;;;;;;15.20;6.88;;;;;;;-0.18;100.00;95433.50;4992018;28;20046;-72
2022/11/15 00:44:07;;;;;;;17.35;7.20;;;;;;;-0.15;100.00;95431.53;4986832;28;20043;-72
2022/11/15 00:46:33;;;;;;;15.20;6.95;;;;;;;-0.21;100.00;95423.56;4989720;28;20205;-72
2022/11/15 00:48:58;;;;;;;13.35;6.45;;;;;;;-0.26;100.00;95423.41;4991768;28;20049;-71
2022/11/15 00:51:24;;;;;;;22.45;7.25;;;;;;;-0.25;100.00;95422.38;4990492;28;20046;-70
2022/11/15 00:53:50;;;;;;;15.57;7.35;;;;;;;-0.24;100.00;95424.00;4978259;28;20042;-71
2022/11/15 00:56:15;;;;;;;15.20;6.85;;;;;;;-0.24;100.00;95416.22;4985316;28;20042;-71
2022/11/15 00:58:41;;;;;;;22.20;7.18;;;;;;;-0.23;100.00;95420.41;4991974;28;20511;-72
2022/11/15 01:01:09;;;;;;;16.98;6.32;;;;;;;-0.29;100.00;95416.03;4976459;28;20416;-71
2022/11/15 01:03:36;;;;;;;15.77;6.63;;;;;;;-0.30;100.00;95403.31;4993975;28;20046;-71
2022/11/15 01:06:01;;;;;;;13.48;6.18;;;;;;;-0.25;100.00;95406.09;4998503;28;20062;-71
2022/11/15 01:08:27;;;;;;;17.88;6.40;;;;;;;-0.30;100.00;95404.13;4973319;28;20043;-71
2022/11/15 01:10:53;;;;;;;13.25;6.60;;;;;;;-0.37;100.00;95398.16;4972293;28;20045;-71
2022/11/15 01:13:18;;;;;;;14.77;6.70;;;;;;;-0.39;100.00;95400.16;4979195;28;20066;-71
2022/11/15 01:15:44;;;;;;;19.42;7.32;;;;;;;-0.41;100.00;95397.78;4997093;28;20041;-71
2022/11/15 01:18:09;;;;;;;14.18;6.70;;;;;;;-0.38;100.00;95396.56;5011525;28;20050;-71
2022/11/15 01:20:40;;;;;;;13.90;6.55;;;;;;;-0.37;100.00;95398.16;5005220;28;20481;-70
2022/11/15 01:23:05;;;;;;;15.50;6.43;;;;;;;-0.37;100.00;95393.00;4995215;28;20048;-71
2022/11/15 01:25:31;;;;;;;13.18;5.90;;;;;;;-0.40;100.00;95388.25;4988211;28;20043;-70
2022/11/15 01:27:56;;;;;;;16.33;6.55;;;;;;;-0.41;100.00;95386.63;4979833;28;20042;-71
2022/11/15 01:30:22;;;;;;;13.57;6.78;;;;;;;-0.46;100.00;95383.84;4974000;28;20093;-71
2022/11/15 01:32:47;;;;;;;14.23;7.28;;;;;;;-0.45;100.00;95380.28;4992907;28;20042;-71
2022/11/15 01:35:13;;;;;;;14.55;6.65;;;;;;;-0.53;100.00;95374.34;4998522;28;20050;-72
2022/11/15 01:37:38;;;;;;;14.32;6.25;;;;;;;-0.51;100.00;95370.75;4986712;28;20054;-71
2022/11/15 01:40:04;;;;;;;13.82;6.65;;;;;;;-0.53;100.00;95366.56;4991495;28;20038;-71
2022/11/15 01:42:30;;;;;;;15.80;6.10;;;;;;;-0.58;100.00;95366.38;4996967;28;20042;-71
2022/11/15 01:44:55;;;;;;;15.18;7.20;;;;;;;-0.58;100.00;95361.22;4986329;28;20049;-69
2022/11/15 01:47:29;;;;;;;15.70;6.80;;;;;;;-0.64;100.00;95353.50;4985121;28;20042;-70
2022/11/15 01:50:08;;;;;;;15.82;6.53;;;;;;;-0.63;100.00;95358.47;4972077;28;20050;-70
2022/11/15 01:52:35;;;;;;;16.05;5.75;;;;;;;-0.59;100.00;95346.72;4964547;28;20054;-69
2022/11/15 01:55:16;;;;;;;10.95;5.90;;;;;;;-0.55;100.00;95355.66;4985859;28;20038;-70
2022/11/15 01:57:44;;;;;;;17.05;6.20;;;;;;;-0.64;100.00;95341.34;4985472;28;20094;-70
2022/11/15 02:00:10;;;;;;;13.50;6.68;;;;;;;-0.64;100.00;95331.00;4996445;28;20077;-70
2022/11/15 02:02:37;;;;;;;17.25;6.93;;;;;;;-0.61;100.00;95335.00;4991964;28;20046;-70
2022/11/15 02:05:03;;;;;;;14.40;5.80;;;;;;;-0.59;100.00;95328.63;4991507;28;20043;-70
2022/11/15 02:07:30;;;;;;;10.80;5.07;;;;;;;-0.59;100.00;95333.78;4978454;28;20039;-70
2022/11/15 02:10:01;;;;;;;11.98;5.72;;;;;;;-0.40;100.00;95333.94;4990301;28;20113;-70
2022/11/15 02:12:26;;;;;;;13.57;6.07;;;;;;;-0.22;100.00;95328.88;4990399;28;20648;-69
2022/11/15 02:14:54;;;;;;;12.52;5.90;;;;;;;-0.35;100.00;95323.75;4983815;28;20035;-70
2022/11/15 02:17:39;;;;;;;12.95;5.57;;;;;;;-0.53;100.00;95325.22;4989810;28;20046;-70
2022/11/15 02:20:26;;;;;;;13.40;5.72;;;;;;;-0.61;100.00;95328.03;4992806;28;20420;-69
2022/11/15 02:23:29;;;;;;;9.63;4.72;;;;;;;-0.61;100.00;95325.44;4994096;28;20050;-68
2022/11/15 02:26:04;;;;;;;11.35;4.78;;;;;;;-0.67;100.00;95315.91;4978185;28;20042;-71
2022/11/15 02:28:40;;;;;;;;;;;;;;;-0.65;100.00;95324.25;4988686;28;20046;-71
2022/11/15 02:31:15;;;;;;;11.85;5.50;;;;;;;-0.70;100.00;95321.50;4989120;28;20307;-71
2022/11/15 02:34:04;;;;;;;12.00;5.38;;;;;;;-0.62;100.00;95318.66;4992051;28;20054;-71
2022/11/15 02:36:41;;;;;;;11.60;5.60;;;;;;;-0.45;100.00;95318.22;4988805;28;20047;-71
2022/11/15 02:39:18;;;;;;;13.38;5.88;;;;;;;-0.40;100.00;95321.00;4988575;28;20042;-70
2022/11/15 02:43:56;;;;;;;13.02;5.30;;;;;;;-0.51;100.00;95324.22;4998127;28;20038;-71
2022/11/15 02:44:57;;;;;;;12.15;5.30;;;;;;;-0.73;100.00;95312.34;4990684;28;20046;-71
2022/11/15 02:47:24;;;;;;;13.20;5.50;;;;;;;-0.76;100.00;95311.94;4991153;28;20046;-71
2022/11/15 02:49:53;;;;;;;12.52;5.30;;;;;;;-0.81;100.00;95298.84;4993887;28;20451;-71
2022/11/15 02:52:27;;;;;;;13.82;5.78;;;;;;;-0.80;100.00;95308.22;4983562;28;20046;-70
2022/11/15 02:54:58;;;;;;;16.37;5.83;;;;;;;-0.80;100.00;95305.63;4978856;28;20046;-71
2022/11/15 02:57:44;;;;;;;13.75;5.43;;;;;;;-0.85;100.00;95313.19;4974996;28;20050;-70
2022/11/15 03:00:14;;;;;;;11.70;5.50;;;;;;;-0.89;100.00;95313.59;4968760;28;20046;-70
2022/11/15 03:02:52;;;;;;;10.93;5.05;;;;;;;-0.90;100.00;95312.00;5000772;28;20054;-71
2022/11/15 03:05:34;;;;;;;10.50;4.90;;;;;;;-0.97;100.00;95300.88;4980491;28;20039;-71
2022/11/15 03:08:16;;;;;;;12.55;5.00;;;;;;;-1.02;100.00;95292.13;4978264;28;20117;-71
2022/11/15 03:11:08;;;;;;;11.95;5.35;;;;;;;-0.98;100.00;95294.09;4985530;28;20519;-71
2022/11/15 03:13:44;;;;;;;10.30;4.70;;;;;;;-1.04;100.00;95292.34;4981525;28;20066;-71
2022/11/15 03:16:17;;;;;;;12.98;4.57;;;;;;;-1.02;100.00;95292.94;4989616;28;20458;-70
2022/11/15 03:18:48;;;;;;;11.65;5.40;;;;;;;-1.07;100.00;95290.16;4986309;28;20042;-71
2022/11/15 03:21:15;;;;;;;11.60;5.20;;;;;;;-1.09;100.00;95298.13;4983465;28;20513;-71
2022/11/15 03:23:41;;;;;;;11.07;4.95;;;;;;;-1.02;100.00;95297.31;5004122;28;20632;-71
2022/11/15 03:26:10;;;;;;;10.63;4.75;;;;;;;-1.10;100.00;95290.56;4990251;28;20050;-71
2022/11/15 03:28:40;;;;;;;12.45;5.03;;;;;;;-1.14;100.00;95284.22;4989460;28;20428;-70
2022/11/15 03:33:56;;;;;;;10.93;4.95;;;;;;;-1.18;100.00;95283.03;4996790;28;20059;-71
2022/11/15 03:36:24;;;;;;;11.52;5.28;;;;;;;-1.18;100.00;95277.88;4988011;28;20078;-71
2022/11/15 03:38:54;;;;;;;10.27;4.95;;;;;;;-1.31;100.00;95269.13;4989485;28;20412;-71
2022/11/15 03:41:53;;;;;;;9.38;4.70;;;;;;;-1.29;100.00;95267.16;4987462;28;20050;-71
2022/11/15 03:44:27;;;;;;;12.88;5.05;;;;;;;-1.22;100.00;95262.78;4991174;28;20050;-71
2022/11/15 03:47:06;;;;;;;;;;;;;;;-1.17;100.00;95261.38;5000911;28;20507;-71
2022/11/15 03:49:35;;;;;;;8.73;4.43;;;;;;;-1.22;100.00;95272.31;5001488;28;19960;-71
2022/11/15 03:52:04;;;;;;;10.00;4.60;;;;;;;-1.32;100.00;95262.41;5004724;28;20522;-71
2022/11/15 03:54:29;;;;;;;11.52;4.85;;;;;;;-1.31;100.00;95263.19;4979847;28;20042;-71
2022/11/15 03:56:55;;;;;;;12.63;5.18;;;;;;;-1.31;100.00;95253.63;4991756;28;20092;-71
2022/11/15 03:59:20;;;;;;;9.85;4.63;;;;;;;-1.29;100.00;95256.81;4974473;28;20042;-71
2022/11/15 04:01:46;;;;;;;7.50;4.00;;;;;;;-1.32;100.00;95252.06;4993072;28;20050;-70
2022/11/15 04:04:12;;;;;;;14.15;4.90;;;;;;;-1.34;100.00;95261.78;4987089;28;20101;-71
2022/11/15 04:06:37;;;;;;;14.05;4.38;;;;;;;-1.32;100.00;95259.81;5000850;28;20043;-71
2022/11/15 04:09:03;;;;;;;9.15;4.50;;;;;;;-1.33;100.00;95258.22;4992282;28;20158;-71
2022/11/15 04:11:29;;;;;;;9.18;4.28;;;;;;;-1.34;100.00;95254.03;4997650;28;20045;-71
2022/11/15 04:13:54;;;;;;;10.80;4.60;;;;;;;-1.29;100.00;95245.72;4989224;28;20097;-71
2022/11/15 04:16:20;;;;;;;9.13;4.35;;;;;;;-1.33;100.00;95250.47;4989684;28;20046;-71
2022/11/15 04:24:11;;;;;;;10.38;4.50;;;;;;;-1.30;100.00;95244.13;4990256;28;20038;-70
2022/11/15 04:24:14;;;;;;;9.73;4.70;;;;;;;-1.33;100.00;95239.38;4991566;28;20088;-71
2022/11/15 04:26:40;;;;;;;8.60;4.57;;;;;;;-1.33;100.00;95229.81;4998651;28;20128;-71
2022/11/15 04:31:50;;;;;;;10.43;4.32;;;;;;;-1.13;100.00;95234.16;4995613;28;20048;-71
2022/11/15 04:34:15;;;;;;;9.43;4.50;;;;;;;-1.17;100.00;95227.81;4986232;28;20031;-70
2022/11/15 04:39:25;;;;;;;9.57;4.45;;;;;;;-1.18;100.00;95227.00;4985151;28;20039;-71
2022/11/15 04:41:50;;;;;;;10.50;4.65;;;;;;;-1.21;100.00;95227.41;4972969;28;20169;-71
2022/11/15 04:44:16;;;;;;;13.07;4.63;;;;;;;-1.29;100.00;95225.84;4984888;28;20049;-71
2022/11/15 04:46:41;;;;;;;10.13;4.45;;;;;;;-1.27;100.00;95221.25;4997548;28;20038;-70
2022/11/15 04:49:07;;;;;;;10.63;4.63;;;;;;;-1.23;100.00;95222.44;4987657;28;20089;-72
2022/11/15 04:51:33;;;;;;;10.50;4.53;;;;;;;-1.22;100.00;95226.63;4989770;28;20050;-72
2022/11/15 04:53:58;;;;;;;10.32;4.15;;;;;;;-1.22;100.00;95231.00;4973467;28;20053;-71
2022/11/15 04:56:24;;;;;;;8.60;4.03;;;;;;;-1.24;100.00;95223.44;4979800;28;20042;-70
2022/11/15 04:58:49;;;;;;;8.30;3.78;;;;;;;-1.28;100.00;95222.28;4990110;28;20057;-70
2022/11/15 05:01:16;;;;;;;9.70;4.20;;;;;;;-1.30;100.00;95229.41;4978185;28;20042;-70
2022/11/15 05:06:26;;;;;;;;;;;;;;;-1.32;100.00;95221.09;4974042;28;20043;-69
2022/11/15 05:08:52;;;;;;;9.35;3.70;;;;;;;-1.36;100.00;95216.53;4972676;28;19929;-69
2022/11/15 05:11:18;;;;;;;9.07;4.10;;;;;;;-1.33;100.00;95213.53;4987154;28;20046;-69
2022/11/15 05:13:43;;;;;;;9.25;4.15;;;;;;;-1.38;100.00;95206.38;4986320;28;20058;-69
2022/11/15 05:16:09;;;;;;;7.72;4.20;;;;;;;-1.39;100.00;95215.16;4979150;28;20108;-69
2022/11/15 05:18:34;;;;;;;8.93;4.18;;;;;;;-1.45;100.00;95210.75;4991775;28;20042;-69
2022/11/15 05:21:05;;;;;;;9.82;3.80;;;;;;;-1.45;100.00;95205.59;4991008;28;20057;-69
2022/11/15 05:23:30;;;;;;;8.65;4.05;;;;;;;-1.43;100.00;95198.47;4972487;28;20125;-69
2022/11/15 05:25:59;;;;;;;12.35;4.13;;;;;;;-1.45;100.00;95198.69;4972151;28;20062;-70
2022/11/15 05:28:25;;;;;;;11.57;4.57;;;;;;;-1.42;100.00;95197.47;4991505;28;20492;-71
2022/11/15 05:30:50;;;;;;;8.02;4.03;;;;;;;-1.43;100.00;95193.31;4985885;28;20041;-70
2022/11/15 05:33:16;;;;;;;10.35;4.15;;;;;;;-1.44;100.00;95196.88;4989522;28;20073;-70
2022/11/15 05:35:48;;;;;;;12.90;4.38;;;;;;;-1.50;100.00;95182.19;4997208;28;20514;-70
2022/11/15 05:38:14;;;;;;;9.38;4.70;;;;;;;-1.54;100.00;95181.00;4991291;28;20050;-71
2022/11/15 05:40:40;;;;;;;11.00;4.43;;;;;;;-1.51;100.00;95183.19;4981664;28;20058;-72
2022/11/15 05:43:05;;;;;;;13.65;4.40;;;;;;;-1.58;100.00;95176.25;4988004;28;20069;-72
2022/11/15 05:45:33;;;;;;;9.00;4.60;;;;;;;-1.57;100.00;95183.00;4971639;28;20038;-72
2022/11/15 05:48:03;;;;;;;8.38;4.03;;;;;;;-1.55;100.00;95182.00;4990666;28;20076;-72
2022/11/15 05:50:29;;;;;;;13.75;5.35;;;;;;;-1.51;100.00;95170.28;4992180;28;20061;-72
2022/11/15 05:52:55;;;;;;;10.85;4.47;;;;;;;-1.45;100.00;95179.78;4985288;28;20509;-73
2022/11/15 05:55:21;;;;;;;9.77;3.92;;;;;;;-1.60;100.00;95173.06;4986348;28;20057;-73
2022/11/15 05:57:46;;;;;;;9.30;4.88;;;;;;;-1.56;100.00;95183.78;4998628;28;20045;-72
2022/11/15 06:00:12;;;;;;;9.90;4.70;;;;;;;-1.61;100.00;95176.66;4981663;28;20046;-72
2022/11/15 06:02:38;;;;;;;9.05;4.38;;;;;;;-1.61;100.00;95181.81;4990750;28;20046;-72
2022/11/15 06:05:04;;;;;;;10.77;4.18;;;;;;;-1.62;100.00;95169.91;4983719;28;20133;-72
2022/11/15 06:07:30;;;;;;;11.93;4.43;;;;;;;-1.63;100.00;95175.28;4986223;28;20043;-73
2022/11/15 06:09:55;;;;;;;11.05;4.57;;;;;;;-1.63;100.00;95168.31;4987601;28;20038;-73
2022/11/15 06:12:21;;;;;;;12.45;4.97;;;;;;;-1.68;100.00;95165.56;4986584;28;20042;-73
2022/11/15 06:14:46;;;;;;;8.90;4.35;;;;;;;-1.62;100.00;95164.75;4988465;28;20534;-72
2022/11/15 06:17:12;;;;;;;11.85;4.07;;;;;;;-1.60;100.00;95162.75;4994429;28;20146;-71
2022/11/15 06:19:37;;;;;;;9.55;4.32;;;;;;;-1.51;100.00;95165.13;4983294;28;20531;-71
2022/11/15 06:22:03;;;;;;;11.18;4.80;;;;;;;-1.29;100.00;95163.88;4971410;28;20049;-71
2022/11/15 06:24:28;;;;;;;9.48;4.38;;;;;;;-1.29;100.00;95168.25;4987796;28;20054;-71
2022/11/15 06:26:54;;;;;;;11.18;4.78;;;;;;;-1.43;100.00;95167.50;4988237;28;20042;-69
2022/11/15 06:29:20;;;;;;;15.77;4.95;;;;;;;-1.47;100.00;95166.31;4990067;28;20061;-72
2022/11/15 06:31:45;;;;;;;11.40;4.25;;;;;;;-1.44;100.00;95160.75;4985490;28;21486;-70
2022/11/15 06:34:11;;;;;;;10.80;4.20;;;;;;;-1.41;100.00;95171.47;4999906;28;20680;-68
2022/11/15 06:36:37;;;;;;;8.45;3.97;;;;;;;-1.42;100.00;95174.25;4979451;28;20070;-68
2022/11/15 06:39:04;;;;;;;10.25;4.00;;;;;;;-1.34;100.00;95176.59;5001868;28;20068;-69
2022/11/15 06:41:30;;;;;;;9.63;4.18;;;;;;;-1.37;100.00;95177.00;4999926;28;20452;-70
2022/11/15 06:43:57;;;;;;;11.85;5.05;;;;;;;-1.37;100.00;95177.00;5000350;28;20050;-69
2022/11/15 06:46:22;;;;;;;10.65;4.22;;;;;;;-1.33;100.00;95173.03;4979001;28;20046;-67
2022/11/15 06:48:51;;;;;;;9.88;4.30;;;;;;;-1.33;100.00;95173.03;5003235;28;20041;-68
2022/11/15 06:51:17;;;;;;;10.25;4.70;;;;;;;-1.40;100.00;95167.09;4990097;28;20161;-66
2022/11/15 06:53:42;;;;;;;10.55;4.55;;;;;;;-1.32;100.00;95169.47;4986078;28;20543;-67
2022/11/15 06:56:09;;;;;;;8.82;4.28;;;;;;;-1.27;100.00;95177.38;4987347;28;20050;-68
2022/11/15 06:58:35;;;;;;;10.27;4.63;;;;;;;-1.23;100.00;95173.38;5000079;28;20500;-69
2022/11/15 07:01:03;;;;;;;11.85;4.95;;;;;;;-1.27;100.00;95177.38;4990784;28;20046;-69
2022/11/15 07:03:29;;;;;;;13.07;4.65;;;;;;;-1.22;100.00;95177.56;4989123;28;20042;-69
2022/11/15 07:05:56;;;;;;;11.82;4.95;;;;;;;-1.04;100.00;95176.13;4991297;28;20046;-69
2022/11/15 07:08:23;;;;;;;12.60;4.95;;;;;;;-1.00;100.00;95177.28;4992541;28;20045;-69
2022/11/15 07:10:49;;;;;;;11.18;4.53;;;;;;;-0.99;100.00;95178.88;4986719;28;20722;-69
2022/11/15 07:13:15;;;;;;;12.20;4.80;;;;;;;-0.95;100.00;95174.91;4976500;28;20640;-68
2022/11/15 07:15:40;;;;;;;9.45;4.57;;;;;;;-0.87;100.00;95173.88;4984864;28;20046;-67
2022/11/15 07:18:06;;;;;;;11.98;4.75;;;;;;;-0.89;100.00;95179.25;4981745;28;20133;-68
2022/11/15 07:20:31;;;;;;;12.48;5.18;;;;;;;-0.93;100.00;95188.41;4985945;28;20046;-68
2022/11/15 07:23:01;;;;;;;13.93;5.68;;;;;;;-0.66;100.00;95180.53;4992032;28;20560;-68
2022/11/15 07:25:27;;;;;;;12.13;5.13;;;;;;;-0.71;100.00;95172.59;4994899;28;20522;-68
2022/11/15 07:27:57;;;;;;;11.23;4.82;;;;;;;-0.65;100.00;95183.91;4990317;28;20039;-68
2022/11/15 07:30:24;;;;;;;11.27;5.00;;;;;;;-0.41;100.00;95177.22;4991517;28;20054;-68
2022/11/15 07:32:57;;;;;;;14.23;6.15;;;;;;;-0.01;100.00;95189.88;4995213;28;20442;-67
2022/11/15 07:35:23;;;;;;;15.35;5.38;;;;;;;0.38;100.00;95182.78;4990853;28;20058;-67
2022/11/15 07:38:00;;;;;;;13.32;5.40;;;;;;;0.30;100.00;95177.88;4990161;28;20504;-67
2022/11/15 07:40:27;;;;;;;17.88;5.75;;;;;;;0.36;100.00;95174.47;4992375;28;20065;-67
2022/11/15 07:42:59;;;;;;;13.93;5.60;;;;;;;0.29;100.00;95168.56;4992582;28;20098;-68
2022/11/15 07:45:28;;;;;;;13.77;5.20;;;;;;;0.17;100.00;95177.00;4975975;28;21636;-69
2022/11/15 07:47:55;;;;;;;13.75;5.22;;;;;;;0.22;100.00;95173.00;4993192;28;20733;-68
2022/11/15 07:50:21;;;;;;;14.65;5.45;;;;;;;0.29;100.00;95165.97;4991058;28;20097;-68
2022/11/15 07:52:47;;;;;;;18.65;5.88;;;;;;;0.42;100.00;95155.47;4973862;28;20054;-68
2022/11/15 07:55:12;;;;;;;23.35;6.40;;;;;;;0.56;100.00;95157.94;4973849;28;20121;-68
2022/11/15 07:57:38;;;;;;;16.50;6.20;;;;;;;0.58;100.00;95161.91;4992712;28;20050;-68
2022/11/15 08:00:05;;;;;;;18.98;6.93;;;;;;;0.51;100.00;95154.19;4993022;28;20054;-69
2022/11/15 08:02:31;;;;;;;17.42;6.82;;;;;;;0.63;100.00;95163.84;4981170;28;20038;-68
2022/11/15 08:04:56;;;;;;;16.65;6.97;;;;;;;0.67;100.00;95165.00;4989572;28;20101;-68
2022/11/15 08:07:22;;;;;;;13.20;6.22;;;;;;;0.75;100.00;95151.78;4989750;28;20187;-65
2022/11/15 08:09:48;;;;;;;15.90;6.18;;;;;;;0.82;100.00;95152.50;4991141;28;20046;-65
2022/11/15 08:12:14;;;;;;;15.98;6.07;;;;;;;0.92;100.00;95148.59;4989764;28;20046;-66
2022/11/15 08:14:39;;;;;;;18.20;6.22;;;;;;;1.01;100.00;95144.72;4990929;28;20065;-67
2022/11/15 08:17:05;;;;;;;13.75;5.80;;;;;;;1.13;100.00;95135.16;4991723;28;20510;-68
2022/11/15 08:19:30;;;;;;;15.55;6.57;;;;;;;1.25;100.00;95124.88;4991547;28;20050;-66
2022/11/15 08:21:56;;;;;;;16.17;5.88;;;;;;;1.34;100.00;95122.75;4989237;28;20120;-68
2022/11/15 08:24:21;;;;;;;14.15;6.10;;;;;;;1.55;100.00;95114.47;4971622;28;20050;-67
2022/11/15 08:26:47;;;;;;;18.65;5.90;;;;;;;1.68;100.00;95112.69;4985718;28;20078;-67
2022/11/15 08:29:12;;;;;;;14.43;6.38;;;;;;;1.82;100.00;95103.69;4990342;28;20077;-68
2022/11/15 08:31:38;;;;;;;16.77;6.47;;;;;;;1.90;100.00;95098.16;4987635;28;20046;-66
2022/11/15 08:34:05;;;;;;;12.20;4.95;;;;;;;2.05;100.00;95096.94;4989596;28;20054;-67
2022/11/15 08:36:31;;;;;;;10.20;4.88;;;;;;;2.39;100.00;95091.97;4990684;28;20115;-67
2022/11/15 08:38:56;;;;;;;13.43;4.65;;;;;;;2.71;100.00;95083.78;4990534;28;20500;-66
2022/11/15 08:41:32;;;;;;;8.35;3.95;;;;;;;2.90;100.00;95092.19;4991777;28;20096;-67
2022/11/15 08:43:57;;;;;;;9.15;3.80;;;;;;;3.22;100.00;95095.16;4989534;28;20050;-67
2022/11/15 08:46:23;;;;;;;7.78;3.33;;;;;;;3.86;100.00;95088.91;4990391;28;20054;-68
2022/11/15 08:48:49;;;;;;;4.82;2.92;;;;;;;4.25;100.00;95083.75;4989733;28;20054;-68
2022/11/15 08:51:15;;;;;;;6.63;3.00;;;;;;;4.41;100.00;95079.56;4982585;28;20045;-67
2022/11/15 08:53:42;;;;;;;4.88;2.70;;;;;;;4.52;100.00;95085.66;4981736;28;20042;-65
2022/11/15 08:56:09;;;;;;;4.75;2.53;;;;;;;4.72;100.00;95089.56;4988097;28;20038;-69
2022/11/15 08:58:35;;;;;;;7.70;3.40;;;;;;;4.90;100.00;95091.88;4990932;28;20058;-67
2022/11/15 09:01:01;;;;;;;12.48;5.35;;;;;;;5.29;100.00;95093.59;4991846;28;20412;-67
2022/11/15 09:03:27;;;;;;;19.35;7.20;;;;;;;5.46;100.00;95098.69;4990666;28;20035;-67
2022/11/15 09:05:57;;;;;;;7.85;3.42;;;;;;;5.41;100.00;95096.06;4991887;28;20054;-67
2022/11/15 09:08:23;;;;;;;6.07;3.15;;;;;;;5.21;100.00;95097.41;4992631;28;20038;-67
2022/11/15 09:10:49;;;;;;;8.70;3.47;;;;;;;5.42;100.00;95092.41;4991826;28;20054;-66
2022/11/15 09:13:14;;;;;;;14.07;4.72;;;;;;;5.53;100.00;95094.88;4990911;28;20077;-67
2022/11/15 09:15:40;;;;;;;8.38;3.50;;;;;;;5.90;100.00;95088.13;4970896;28;20109;-66
2022/11/15 09:18:05;;;;;;;14.30;4.55;;;;;;;5.93;100.00;95082.41;4976309;28;20050;-67
2022/11/15 09:20:31;;;;;;;8.32;4.20;;;;;;;5.95;100.00;95079.53;4971056;28;20077;-67
2022/11/15 09:23:04;;;;;;;12.32;4.28;;;;;;;5.96;100.00;95071.47;4972373;28;20047;-67
2022/11/15 09:25:31;;;;;;;8.75;4.22;;;;;;;5.96;100.00;95076.69;4972327;28;20074;-66
2022/11/15 09:27:56;;;;;;;7.13;3.72;;;;;;;6.11;100.00;95068.19;4986646;28;20073;-66
2022/11/15 09:30:23;;;;;;;8.80;4.15;;;;;;;7.40;100.00;95061.66;4989982;28;20096;-67
2022/11/15 09:32:49;;;;;;;9.90;4.43;;;;;;;9.46;100.00;95050.66;4985274;28;20444;-67
2022/11/15 09:35:14;;;;;;;11.43;3.90;;;;;;;9.91;100.00;95055.06;4980118;28;20070;-66
2022/11/15 09:37:40;;;;;;;13.38;3.70;;;;;;;10.23;100.00;95054.53;4974764;28;20093;-67
2022/11/15 09:40:10;;;;;;;10.45;4.20;;;;;;;11.31;100.00;95052.53;4986675;28;20043;-67
2022/11/15 09:42:38;;;;;;;7.40;3.85;;;;;;;11.70;94.58;95048.81;4988398;28;20050;-67
2022/11/15 09:45:04;;;;;;;10.48;4.20;;;;;;;11.89;100.00;95046.91;4991676;28;20092;-68
2022/11/15 09:47:57;;;;;;;8.38;3.85;;;;;;;13.17;86.34;95030.59;4987285;28;20050;-68
2022/11/15 09:50:42;;;;;;;10.75;4.15;;;;;;;12.61;78.60;95024.59;4985841;28;20059;-67
2022/11/15 09:53:26;;;;;;;7.07;4.05;;;;;;;13.67;83.80;95016.53;4977255;28;20050;-69
2022/11/15 09:56:17;;;;;;;11.30;4.25;;;;;;;14.17;78.88;95012.16;4965927;28;20038;-67
2022/11/15 09:59:04;;;;;;;9.27;3.83;;;;;;;14.77;75.31;95004.75;4990311;28;20109;-68
2022/11/15 10:01:42;;;;;;;7.68;4.15;;;;;;;14.51;69.72;95008.09;4989102;28;20408;-68
2022/11/15 10:04:08;;;;;;;7.13;4.30;;;;;;;13.66;71.75;94999.13;4988488;28;20054;-70
2022/11/15 10:06:44;;;;;;;8.25;4.15;;;;;;;14.33;71.79;95000.09;4988632;28;20069;-70
2022/11/15 10:09:19;;;;;;;10.35;4.63;;;;;;;13.57;71.37;95006.19;4985135;28;20046;-67
2022/11/15 10:11:44;;;;;;;10.95;4.57;;;;;;;15.24;66.97;95005.00;4993217;28;20042;-66
2022/11/15 10:14:23;;;;;;;8.95;4.40;;;;;;;15.93;70.45;94996.25;4996364;28;20054;-67
2022/11/15 10:17:01;;;;;;;9.57;4.05;;;;;;;15.95;59.80;94990.63;4981096;28;20042;-67
2022/11/15 10:19:45;;;;;;;14.25;4.50;;;;;;;14.70;64.09;94987.47;4984904;28;20062;-68
2022/11/15 10:22:38;;;;;;;7.43;4.30;;;;;;;16.29;59.83;94978.34;5013684;28;20061;-67
2022/11/15 10:25:09;;;;;;;6.40;3.83;;;;;;;16.62;58.71;94975.06;4981299;28;20042;-67
2022/11/15 10:27:35;;;;;;;11.00;4.00;;;;;;;16.50;60.52;94972.31;5002773;28;20046;-68
2022/11/15 10:30:03;;;;;;;6.55;3.28;;;;;;;16.30;58.32;94958.66;4980100;28;20125;-67
2022/11/15 10:32:32;;;;;;;5.82;3.70;;;;;;;16.86;58.66;94958.50;4993132;28;20042;-67
2022/11/15 10:34:58;;;;;;;6.43;3.80;;;;;;;16.87;55.21;94959.31;4980834;28;20518;-67
2022/11/15 10:37:29;;;;;;;6.78;3.53;;;;;;;18.11;60.29;94950.75;4986617;28;20050;-68
2022/11/15 10:40:06;;;;;;;6.35;3.38;;;;;;;18.26;53.79;94951.19;4985535;28;20058;-67
2022/11/15 10:42:32;;;;;;;4.68;3.20;;;;;;;17.57;57.34;94948.13;4980666;28;20039;-68
2022/11/15 10:44:57;;;;;;;4.90;3.28;;;;;;;17.45;60.83;94946.97;4975923;28;20062;-68
2022/11/15 10:47:27;;;;;;;4.90;2.90;;;;;;;18.14;55.54;94926.09;4987053;28;20038;-69
2022/11/15 10:50:09;;;;;;;3.97;2.60;;;;;;;18.56;53.11;94927.81;4985018;28;20089;-68
2022/11/15 10:52:36;;;;;;;4.75;2.70;;;;;;;18.18;51.35;94923.56;4979673;28;20651;-69
2022/11/15 10:55:16;;;;;;;6.50;2.95;;;;;;;18.44;50.01;94925.91;4974660;28;20063;-69
2022/11/15 10:57:53;;;;;;;6.70;2.58;;;;;;;18.48;46.03;94924.13;4986341;28;20042;-68
2022/11/15 11:00:19;;;;;;;4.43;3.00;;;;;;;17.23;50.15;94923.41;4985909;28;20058;-68
2022/11/15 11:02:58;;;;;;;4.55;2.13;;;;;;;16.83;53.44;94907.91;4976003;28;20059;-68
2022/11/15 11:05:36;;;;;;;5.25;2.35;;;;;;;17.52;47.00;94908.47;4988784;28;20133;-67
2022/11/15 11:08:11;;;;;;;3.65;2.60;;;;;;;16.98;46.40;94907.34;4980427;28;20042;-68
2022/11/15 11:10:38;;;;;;;3.58;2.50;;;;;;;16.76;47.85;94901.22;4993369;28;20050;-67
2022/11/15 11:13:15;;;;;;;4.45;2.63;;;;;;;17.31;48.19;94906.59;4984301;28;20043;-68
2022/11/15 11:15:45;;;;;;;4.50;2.58;;;;;;;17.89;46.05;94892.56;4992351;28;20058;-69
2022/11/15 11:18:21;;;;;;;6.43;2.55;;;;;;;17.03;49.55;94893.84;4991968;28;20458;-69
2022/11/15 11:21:07;;;;;;;5.88;2.30;;;;;;;18.38;48.45;94891.84;5007561;28;20045;-67
2022/11/15 11:23:53;;;;;;;3.33;2.22;;;;;;;17.41;44.65;94887.59;5001619;28;20038;-68
2022/11/15 11:26:42;;;;;;;4.45;2.47;;;;;;;17.23;44.91;94883.53;4993027;28;20090;-68
2022/11/15 11:29:33;;;;;;;5.95;2.45;;;;;;;17.92;44.86;94873.31;4991407;28;20042;-68
2022/11/15 11:32:08;;;;;;;5.93;2.28;;;;;;;17.36;46.13;94869.16;4968701;28;20060;-68
2022/11/15 11:34:43;;;;;;;4.18;2.30;;;;;;;18.89;43.92;94867.44;4998804;28;20038;-68
2022/11/15 11:37:40;;;;;;;4.82;2.40;;;;;;;18.23;45.54;94866.66;4988345;28;20116;-68
2022/11/15 11:40:25;;;;;;;4.45;2.30;;;;;;;18.42;44.52;94863.41;4989628;28;20508;-68
2022/11/15 11:43:18;;;;;;;3.58;2.20;;;;;;;18.58;44.59;94860.84;4979749;28;20047;-69
2022/11/15 11:46:16;;;;;;;2.92;2.10;;;;;;;19.82;43.20;94851.22;4987961;28;20061;-67
2022/11/15 11:48:51;;;;;;;3.30;2.08;;;;;;;19.73;42.45;94837.25;4990446;28;20085;-67